Time;durP1;ratioP1;P1;durP2;ratioP2;P2;SDS_P1;SDS_P2;PMS_P1;PMS_P2;Temp;Humidity;BMP_temperature;BMP_pressure;BME280_temperature;BME280_humidity;BME280_pressure;Samples;Min_cycle;Max_cycle;Signal;HPM_P1;HPM_P2
2022/04/09 00:00:18;;;;;;;18.70;4.35;;;;;;;;;;5071337;28;20202;-70
2022/04/09 00:02:46;;;;;;;17.25;4.47;;;;;;;;;;5071304;28;20263;-70
2022/04/09 00:05:15;;;;;;;17.90;4.40;;;;;;;;;;5071634;28;20212;-70
2022/04/09 00:07:42;;;;;;;17.48;4.25;;;;;;;;;;5071180;28;20300;-70
2022/04/09 00:10:11;;;;;;;20.50;5.30;;;;;;;;;;5071139;28;20213;-70
2022/04/09 00:12:38;;;;;;;21.48;5.07;;;;;;;;;;5071694;28;20243;-70
2022/04/09 00:15:08;;;;;;;18.73;4.30;;;;;;;;;;5071107;28;20211;-70
2022/04/09 00:17:40;;;;;;;17.73;3.50;;;;;;;;;;5071260;28;20209;-71
2022/04/09 00:20:08;;;;;;;14.48;3.80;;;;;;;;;;5071100;28;20212;-70
2022/04/09 00:22:36;;;;;;;23.60;4.65;;;;;;;;;;5053560;28;20728;-71
2022/04/09 00:25:05;;;;;;;19.98;4.63;;;;;;;;;;5052128;28;20212;-70
2022/04/09 00:27:32;;;;;;;17.90;3.47;;;;;;;;;;5052062;28;20209;-70
2022/04/09 00:29:59;;;;;;;26.17;5.20;;;;;;;;;;5051568;28;20208;-71
2022/04/09 00:32:28;;;;;;;25.50;5.45;;;;;;;;;;5051761;28;20634;-70
2022/04/09 00:34:57;;;;;;;21.08;5.22;;;;;;;;;;5051897;28;20676;-70
2022/04/09 00:37:24;;;;;;;19.52;4.50;;;;;;;;;;5045112;28;20240;-71
2022/04/09 00:39:52;;;;;;;24.90;5.57;;;;;;;;;;5052050;28;20237;-70
2022/04/09 00:42:20;;;;;;;15.65;3.83;;;;;;;;;;5051598;28;20264;-71
2022/04/09 00:44:48;;;;;;;19.90;4.93;;;;;;;;;;5055572;28;20296;-70
2022/04/09 00:47:16;;;;;;;21.70;4.25;;;;;;;;;;5071372;28;20247;-71
2022/04/09 00:49:45;;;;;;;17.77;4.80;;;;;;;;;;5070604;28;20300;-71
2022/04/09 00:52:14;;;;;;;17.27;4.15;;;;;;;;;;5070716;28;20215;-71
2022/04/09 00:54:44;;;;;;;18.65;5.20;;;;;;;;;;5070677;28;20230;-70
2022/04/09 00:57:12;;;;;;;18.75;4.03;;;;;;;;;;5074024;28;20209;-70
2022/04/09 00:59:43;;;;;;;20.30;5.10;;;;;;;;;;5049036;28;20243;-71
2022/04/09 01:02:13;;;;;;;22.00;4.93;;;;;;;;;;5074683;28;20782;-71
2022/04/09 01:04:42;;;;;;;21.75;4.55;;;;;;;;;;5074775;28;20207;-71
2022/04/09 01:07:11;;;;;;;23.35;5.80;;;;;;;;;;5074885;28;20212;-70
2022/04/09 01:09:40;;;;;;;21.40;4.82;;;;;;;;;;5074642;28;20207;-70
2022/04/09 01:12:07;;;;;;;18.42;4.43;;;;;;;;;;5064876;28;20208;-70
2022/04/09 01:14:35;;;;;;;19.52;4.32;;;;;;;;;;5055440;28;20289;-70
2022/04/09 01:17:02;;;;;;;18.60;4.75;;;;;;;;;;5055260;28;20227;-70
2022/04/09 01:19:30;;;;;;;31.88;6.63;;;;;;;;;;5055308;28;20215;-70
2022/04/09 01:22:00;;;;;;;27.48;5.80;;;;;;;;;;5054992;28;20229;-71
2022/04/09 01:24:28;;;;;;;20.60;4.47;;;;;;;;;;5055018;28;20215;-70
2022/04/09 01:26:55;;;;;;;21.77;4.53;;;;;;;;;;5055177;28;20209;-70
2022/04/09 01:29:23;;;;;;;16.63;4.35;;;;;;;;;;5054895;28;20204;-71
2022/04/09 01:31:50;;;;;;;26.30;5.95;;;;;;;;;;5054776;28;20216;-70
2022/04/09 01:34:18;;;;;;;18.33;4.50;;;;;;;;;;5054979;28;20215;-71
2022/04/09 01:36:46;;;;;;;17.40;3.58;;;;;;;;;;5055256;28;20217;-70
2022/04/09 01:39:17;;;;;;;21.27;4.45;;;;;;;;;;5054993;28;20209;-70
2022/04/09 01:41:45;;;;;;;21.52;5.15;;;;;;;;;;5054768;28;20225;-71
2022/04/09 01:44:13;;;;;;;18.48;4.20;;;;;;;;;;5054608;28;20256;-71
2022/04/09 01:46:44;;;;;;;16.33;4.65;;;;;;;;;;5048319;28;20216;-70
2022/04/09 01:49:12;;;;;;;19.17;4.55;;;;;;;;;;5054809;28;20213;-70
2022/04/09 01:51:39;;;;;;;17.15;3.88;;;;;;;;;;5054789;28;20217;-70
2022/04/09 01:54:07;;;;;;;22.33;5.63;;;;;;;;;;5054770;28;20232;-70
2022/04/09 01:56:36;;;;;;;19.40;5.18;;;;;;;;;;5054368;28;20228;-70
2022/04/09 01:59:03;;;;;;;18.00;4.35;;;;;;;;;;5054435;28;20208;-70
2022/04/09 02:01:32;;;;;;;18.95;4.25;;;;;;;;;;5054644;28;20208;-70
2022/04/09 02:04:00;;;;;;;21.65;4.40;;;;;;;;;;5054423;28;20695;-71
2022/04/09 02:06:28;;;;;;;13.25;2.60;;;;;;;;;;5054145;28;20208;-71
2022/04/09 02:08:56;;;;;;;17.73;3.35;;;;;;;;;;5046525;28;20298;-70
2022/04/09 02:11:23;;;;;;;16.00;3.58;;;;;;;;;;5054249;28;20578;-70
2022/04/09 02:13:52;;;;;;;22.42;5.22;;;;;;;;;;5054241;28;20279;-71
2022/04/09 02:16:20;;;;;;;14.43;2.60;;;;;;;;;;5054480;28;20552;-71
2022/04/09 02:18:48;;;;;;;15.10;2.60;;;;;;;;;;5054328;28;20241;-70
2022/04/09 02:21:15;;;;;;;15.98;3.03;;;;;;;;;;5054133;28;20202;-71
2022/04/09 02:23:43;;;;;;;15.15;2.00;;;;;;;;;;5053712;28;20241;-71
2022/04/09 02:26:10;;;;;;;17.95;3.47;;;;;;;;;;5054176;28;20699;-71
2022/04/09 02:28:38;;;;;;;14.90;2.42;;;;;;;;;;5053823;28;20673;-71
2022/04/09 02:31:07;;;;;;;17.10;2.65;;;;;;;;;;5053878;28;20297;-71
2022/04/09 02:33:35;;;;;;;15.40;2.80;;;;;;;;;;5053925;28;20259;-71
2022/04/09 02:36:03;;;;;;;13.20;2.33;;;;;;;;;;5053676;28;20469;-71
2022/04/09 02:38:30;;;;;;;19.10;3.50;;;;;;;;;;5054152;28;20453;-71
2022/04/09 02:40:59;;;;;;;19.03;3.00;;;;;;;;;;5053889;28;20472;-71
2022/04/09 02:43:26;;;;;;;16.40;2.50;;;;;;;;;;5053816;28;20490;-71
2022/04/09 02:45:55;;;;;;;24.93;4.27;;;;;;;;;;5053590;28;20981;-71
2022/04/09 02:48:24;;;;;;;18.03;2.37;;;;;;;;;;5053735;28;20453;-71
2022/04/09 02:50:52;;;;;;;14.80;2.70;;;;;;;;;;5053409;28;20449;-71
2022/04/09 02:53:20;;;;;;;14.43;2.97;;;;;;;;;;5053800;28;20837;-71
2022/04/09 02:55:47;;;;;;;19.90;3.70;;;;;;;;;;5053320;28;20477;-71
2022/04/09 02:58:15;;;;;;;15.00;2.53;;;;;;;;;;5053635;28;20467;-71
2022/04/09 03:00:42;;;;;;;13.53;2.30;;;;;;;;;;5053443;28;20206;-70
2022/04/09 03:03:09;;;;;;;18.65;3.13;;;;;;;;;;5053202;28;20500;-70
2022/04/09 03:05:38;;;;;;;19.23;3.57;;;;;;;;;;5053232;28;20214;-71
2022/04/09 03:08:06;;;;;;;15.30;2.60;;;;;;;;;;5052898;28;20452;-71
2022/04/09 03:10:34;;;;;;;16.63;2.83;;;;;;;;;;5053429;28;20221;-71
2022/04/09 03:13:04;;;;;;;13.10;2.40;;;;;;;;;;5046287;28;20548;-71
2022/04/09 03:15:31;;;;;;;15.52;3.05;;;;;;;;;;5053102;28;20301;-71
2022/04/09 03:17:59;;;;;;;24.40;4.53;;;;;;;;;;5052621;28;20216;-71
2022/04/09 03:20:26;;;;;;;14.40;2.53;;;;;;;;;;5052998;28;20483;-71
2022/04/09 03:22:55;;;;;;;15.35;2.53;;;;;;;;;;5053224;28;20483;-70
2022/04/09 03:25:22;;;;;;;21.05;2.85;;;;;;;;;;5052849;28;20209;-71
2022/04/09 03:27:50;;;;;;;24.60;5.07;;;;;;;;;;5060587;28;20240;-71
2022/04/09 03:30:18;;;;;;;19.92;3.75;;;;;;;;;;5071662;28;20204;-71
2022/04/09 03:32:45;;;;;;;15.52;3.20;;;;;;;;;;5071950;28;20208;-71
2022/04/09 03:35:13;;;;;;;16.95;3.85;;;;;;;;;;5072000;28;20214;-71
2022/04/09 03:37:41;;;;;;;14.75;3.60;;;;;;;;;;5072007;28;20282;-71
2022/04/09 03:40:12;;;;;;;14.02;3.22;;;;;;;;;;5071700;28;20200;-71
2022/04/09 03:42:40;;;;;;;22.15;4.30;;;;;;;;;;5071664;28;20239;-71
2022/04/09 03:45:08;;;;;;;29.27;4.93;;;;;;;;;;5072178;28;20235;-71
2022/04/09 03:47:36;;;;;;;16.65;3.90;;;;;;;;;;5071538;28;20208;-71
2022/04/09 03:50:03;;;;;;;17.92;6.10;;;;;;;;;;5071255;28;20208;-71
2022/04/09 03:52:31;;;;;;;16.90;3.65;;;;;;;;;;5071441;28;20208;-71
2022/04/09 03:54:58;;;;;;;15.95;3.88;;;;;;;;;;5071656;28;20620;-71
2022/04/09 03:57:27;;;;;;;17.20;3.95;;;;;;;;;;5071281;28;20211;-70
2022/04/09 03:59:57;;;;;;;20.60;4.38;;;;;;;;;;5071395;28;20648;-71
2022/04/09 04:02:26;;;;;;;21.02;5.78;;;;;;;;;;5071281;28;20249;-70
2022/04/09 04:04:53;;;;;;;16.90;3.75;;;;;;;;;;5071558;28;20236;-70
2022/04/09 04:07:23;;;;;;;17.50;3.80;;;;;;;;;;5071375;28;20294;-71
2022/04/09 04:09:51;;;;;;;23.67;5.10;;;;;;;;;;5071036;28;20210;-71
2022/04/09 04:12:19;;;;;;;17.50;4.32;;;;;;;;;;5071118;28;20227;-71
2022/04/09 04:14:48;;;;;;;15.63;3.63;;;;;;;;;;5071350;28;20201;-71
2022/04/09 04:17:15;;;;;;;18.20;4.47;;;;;;;;;;5071475;28;20210;-71
2022/04/09 04:19:43;;;;;;;16.20;3.33;;;;;;;;;;5071027;28;20488;-71
2022/04/09 04:22:11;;;;;;;14.80;3.27;;;;;;;;;;5070972;28;20445;-71
2022/04/09 04:24:38;;;;;;;17.40;3.23;;;;;;;;;;5071076;28;20465;-71
2022/04/09 04:27:06;;;;;;;16.30;3.40;;;;;;;;;;5071545;28;20437;-71
2022/04/09 04:29:34;;;;;;;18.80;4.23;;;;;;;;;;5071483;28;20449;-71
2022/04/09 04:32:03;;;;;;;15.80;3.80;;;;;;;;;;5070135;28;20465;-71
2022/04/09 04:34:30;;;;;;;22.80;4.90;;;;;;;;;;5070896;28;20453;-71
2022/04/09 04:36:58;;;;;;;19.60;4.63;;;;;;;;;;5071102;28;20458;-71
2022/04/09 04:39:26;;;;;;;13.90;3.13;;;;;;;;;;5045205;28;20480;-71
2022/04/09 04:41:53;;;;;;;21.20;4.63;;;;;;;;;;5051527;28;20807;-71
2022/04/09 04:44:20;;;;;;;13.90;3.40;;;;;;;;;;5051629;28;20970;-71
2022/04/09 04:46:48;;;;;;;14.10;3.20;;;;;;;;;;5051964;28;20536;-71
2022/04/09 04:49:17;;;;;;;18.43;3.90;;;;;;;;;;5051691;28;20444;-71
2022/04/09 04:51:44;;;;;;;22.53;4.03;;;;;;;;;;5051360;28;20460;-71
2022/04/09 04:54:12;;;;;;;16.47;4.37;;;;;;;;;;5052010;28;20448;-71
2022/04/09 04:56:40;;;;;;;16.50;3.63;;;;;;;;;;5051969;28;20468;-71
2022/04/09 04:59:07;;;;;;;20.03;4.70;;;;;;;;;;5044873;28;20444;-72
2022/04/09 05:01:37;;;;;;;18.77;4.77;;;;;;;;;;5051618;28;20451;-72
2022/04/09 05:04:05;;;;;;;20.97;4.43;;;;;;;;;;5051240;28;20523;-73
2022/04/09 05:06:34;;;;;;;23.73;4.60;;;;;;;;;;5051738;28;20450;-72
2022/04/09 05:09:01;;;;;;;16.43;4.23;;;;;;;;;;5051699;28;20539;-72
2022/04/09 05:11:29;;;;;;;16.97;3.67;;;;;;;;;;5051674;28;20479;-73
2022/04/09 05:13:57;;;;;;;19.93;4.70;;;;;;;;;;5051175;28;20459;-72
2022/04/09 05:16:24;;;;;;;22.23;5.07;;;;;;;;;;5051566;28;20475;-73
2022/04/09 05:18:51;;;;;;;22.03;5.00;;;;;;;;;;5051414;28;20450;-72
2022/04/09 05:21:19;;;;;;;15.63;4.20;;;;;;;;;;5070631;28;20454;-72
2022/04/09 05:23:48;;;;;;;16.20;3.80;;;;;;;;;;5070147;28;20490;-72
2022/04/09 05:26:15;;;;;;;18.30;4.43;;;;;;;;;;5070653;28;20443;-72
2022/04/09 05:28:43;;;;;;;16.63;4.00;;;;;;;;;;5070585;28;20473;-72
2022/04/09 05:31:11;;;;;;;22.43;5.30;;;;;;;;;;5070448;28;20513;-73
2022/04/09 05:33:39;;;;;;;17.40;3.60;;;;;;;;;;5070917;28;20474;-72
2022/04/09 05:36:06;;;;;;;20.00;4.60;;;;;;;;;;5070435;28;20458;-73
2022/04/09 05:38:34;;;;;;;17.10;3.97;;;;;;;;;;5070444;28;20522;-73
2022/04/09 05:41:02;;;;;;;18.53;4.90;;;;;;;;;;5070818;28;20813;-73
2022/04/09 05:43:30;;;;;;;20.60;4.93;;;;;;;;;;5073328;28;20474;-73
2022/04/09 05:45:58;;;;;;;22.47;4.83;;;;;;;;;;5073884;28;20471;-73
2022/04/09 05:48:25;;;;;;;16.27;3.70;;;;;;;;;;5073767;28;20975;-72
2022/04/09 05:50:53;;;;;;;18.43;4.47;;;;;;;;;;5073923;28;21063;-73
2022/04/09 05:53:20;;;;;;;20.80;4.40;;;;;;;;;;5073776;28;20457;-72
2022/04/09 05:55:48;;;;;;;15.77;4.20;;;;;;;;;;5073517;28;20936;-72
2022/04/09 05:58:17;;;;;;;17.33;4.03;;;;;;;;;;5073667;28;20461;-72
2022/04/09 06:00:44;;;;;;;14.47;3.63;;;;;;;;;;5073697;28;20453;-72
2022/04/09 06:03:12;;;;;;;17.97;3.43;;;;;;;;;;5073623;28;20586;-71
2022/04/09 06:05:39;;;;;;;21.00;4.47;;;;;;;;;;5073747;28;20450;-72
2022/04/09 06:08:07;;;;;;;16.30;3.93;;;;;;;;;;5073510;28;20446;-72
2022/04/09 06:10:35;;;;;;;20.23;4.53;;;;;;;;;;5073312;28;20952;-72
2022/04/09 06:13:02;;;;;;;18.17;4.40;;;;;;;;;;5073661;28;20489;-72
2022/04/09 06:15:31;;;;;;;15.50;3.87;;;;;;;;;;5073285;28;20450;-72
2022/04/09 06:17:58;;;;;;;20.90;4.90;;;;;;;;;;5072985;28;20956;-72
2022/04/09 06:20:26;;;;;;;13.97;3.17;;;;;;;;;;5073683;28;20455;-72
2022/04/09 06:22:53;;;;;;;16.67;3.80;;;;;;;;;;5073234;28;20455;-72
2022/04/09 06:25:21;;;;;;;15.73;3.73;;;;;;;;;;5073081;28;20447;-72
2022/04/09 06:27:48;;;;;;;17.00;3.73;;;;;;;;;;5072886;28;20944;-72
2022/04/09 06:30:16;;;;;;;16.90;3.47;;;;;;;;;;5073475;28;20533;-72
2022/04/09 06:32:44;;;;;;;15.07;3.00;;;;;;;;;;5073044;28;20455;-72
2022/04/09 06:35:12;;;;;;;18.20;4.60;;;;;;;;;;5072871;28;20446;-72
2022/04/09 06:37:40;;;;;;;15.40;3.17;;;;;;;;;;5072849;28;20463;-72
2022/04/09 06:40:09;;;;;;;15.00;3.00;;;;;;;;;;5073367;28;20545;-72
2022/04/09 06:42:37;;;;;;;17.70;3.00;;;;;;;;;;5073015;28;21054;-72
2022/04/09 06:45:05;;;;;;;15.90;3.53;;;;;;;;;;5072828;28;20480;-72
2022/04/09 06:47:32;;;;;;;16.70;3.90;;;;;;;;;;5072681;28;20457;-73
2022/04/09 06:50:01;;;;;;;22.03;4.47;;;;;;;;;;5072413;28;20947;-73
2022/04/09 06:52:28;;;;;;;14.77;2.80;;;;;;;;;;5072579;28;20461;-73
2022/04/09 06:54:58;;;;;;;19.23;3.47;;;;;;;;;;5071943;28;20463;-73
2022/04/09 06:57:26;;;;;;;18.07;3.63;;;;;;;;;;5071704;28;20450;-72
2022/04/09 06:59:57;;;;;;;21.90;3.90;;;;;;;;;;5071666;28;20451;-74
2022/04/09 07:02:24;;;;;;;24.83;4.83;;;;;;;;;;5072072;28;20474;-74
2022/04/09 07:04:53;;;;;;;20.70;4.23;;;;;;;;;;5072045;28;20482;-74
2022/04/09 07:07:22;;;;;;;13.30;2.40;;;;;;;;;;5072214;28;20822;-74
2022/04/09 07:09:50;;;;;;;18.23;3.20;;;;;;;;;;5072299;28;20525;-74
2022/04/09 07:12:18;;;;;;;25.23;4.73;;;;;;;;;;5071990;28;20494;-74
2022/04/09 07:14:46;;;;;;;20.83;3.43;;;;;;;;;;5070241;28;20533;-72
2022/04/09 07:17:13;;;;;;;19.60;3.50;;;;;;;;;;5070310;28;20450;-74
2022/04/09 07:19:42;;;;;;;16.57;3.10;;;;;;;;;;5070263;28;21028;-74
2022/04/09 07:22:09;;;;;;;22.00;4.70;;;;;;;;;;5070116;28;20470;-74
2022/04/09 07:24:38;;;;;;;17.87;3.60;;;;;;;;;;5070617;28;20482;-75
2022/04/09 07:27:06;;;;;;;16.67;2.80;;;;;;;;;;5044716;28;20454;-73
2022/04/09 07:29:34;;;;;;;21.80;4.20;;;;;;;;;;5051046;28;20448;-73
2022/04/09 07:32:01;;;;;;;26.37;6.23;;;;;;;;;;5050528;28;20495;-74
2022/04/09 07:34:29;;;;;;;54.93;23.20;;;;;;;;;;5049818;28;20451;-75
2022/04/09 07:36:56;;;;;;;25.80;6.10;;;;;;;;;;5048990;28;20452;-74
2022/04/09 07:39:23;;;;;;;23.80;4.30;;;;;;;;;;5049879;28;20454;-75
2022/04/09 07:41:52;;;;;;;32.77;7.00;;;;;;;;;;5050021;28;20444;-75
2022/04/09 07:44:22;;;;;;;18.30;3.63;;;;;;;;;;5051136;28;20487;-75
2022/04/09 07:46:49;;;;;;;17.50;3.07;;;;;;;;;;5051079;28;20529;-76
2022/04/09 07:49:17;;;;;;;21.93;5.97;;;;;;;;;;5071183;28;20546;-75
2022/04/09 07:51:44;;;;;;;23.30;5.40;;;;;;;;;;5071300;28;20461;-74
2022/04/09 07:54:13;;;;;;;44.87;20.27;;;;;;;;;;5071355;28;20454;-76
2022/04/09 07:56:41;;;;;;;14.47;3.30;;;;;;;;;;5071335;28;20476;-76
2022/04/09 07:59:10;;;;;;;14.93;2.67;;;;;;;;;;5071141;28;20851;-76
2022/04/09 08:01:38;;;;;;;17.70;3.03;;;;;;;;;;5071146;28;20447;-74
2022/04/09 08:04:06;;;;;;;15.20;3.37;;;;;;;;;;5071062;28;20581;-75
2022/04/09 08:06:33;;;;;;;18.90;3.70;;;;;;;;;;5071312;28;20449;-74
2022/04/09 08:09:01;;;;;;;14.20;2.50;;;;;;;;;;5071277;28;20861;-74
2022/04/09 08:11:28;;;;;;;14.57;2.57;;;;;;;;;;5071066;28;20825;-73
2022/04/09 08:13:56;;;;;;;21.10;4.57;;;;;;;;;;5071182;28;20476;-74
2022/04/09 08:16:25;;;;;;;18.47;2.60;;;;;;;;;;5071273;28;20457;-73
2022/04/09 08:18:53;;;;;;;20.90;4.73;;;;;;;;;;5071078;28;20445;-73
2022/04/09 08:21:22;;;;;;;15.80;2.83;;;;;;;;;;5071126;28;20454;-74
2022/04/09 08:23:49;;;;;;;25.77;4.30;;;;;;;;;;5070761;28;20524;-73
2022/04/09 08:26:17;;;;;;;24.47;3.10;;;;;;;;;;5070890;28;20997;-74
2022/04/09 08:28:44;;;;;;;17.83;2.87;;;;;;;;;;5071708;28;20443;-73
2022/04/09 08:31:12;;;;;;;18.47;3.03;;;;;;;;;;5070910;28;20457;-73
2022/04/09 08:33:42;;;;;;;17.90;2.20;;;;;;;;;;5071117;28;20435;-72
2022/04/09 08:36:09;;;;;;;16.40;3.20;;;;;;;;;;5071017;28;20541;-72
2022/04/09 08:38:38;;;;;;;26.00;6.63;;;;;;;;;;5070836;28;20531;-73
2022/04/09 08:41:05;;;;;;;22.57;5.93;;;;;;;;;;5070897;28;20550;-73
2022/04/09 08:43:34;;;;;;;45.93;22.63;;;;;;;;;;5070803;28;20450;-72
2022/04/09 08:46:02;;;;;;;23.57;7.77;;;;;;;;;;5070565;28;20445;-72
2022/04/09 08:48:31;;;;;;;21.13;3.33;;;;;;;;;;5071100;28;20451;-72
2022/04/09 08:51:01;;;;;;;28.03;8.80;;;;;;;;;;5071012;28;20957;-73
2022/04/09 08:53:29;;;;;;;16.90;3.63;;;;;;;;;;5071442;28;20445;-73
2022/04/09 08:55:57;;;;;;;35.27;8.53;;;;;;;;;;5070501;28;20474;-73
2022/04/09 08:58:25;;;;;;;23.97;4.03;;;;;;;;;;5070602;28;20480;-72
2022/04/09 09:00:52;;;;;;;14.47;1.90;;;;;;;;;;5070704;28;20452;-71
2022/04/09 09:03:20;;;;;;;20.47;3.20;;;;;;;;;;5070353;28;20865;-71
2022/04/09 09:05:52;;;;;;;26.57;4.00;;;;;;;;;;5070312;28;20841;-74
2022/04/09 09:08:37;;;;;;;16.47;2.70;;;;;;;;;;5070763;28;20503;-73
2022/04/09 09:11:05;;;;;;;18.80;2.80;;;;;;;;;;5070735;28;20455;-72
2022/04/09 09:13:46;;;;;;;19.63;3.30;;;;;;;;;;5070860;28;20545;-72
2022/04/09 09:16:19;;;;;;;23.80;4.43;;;;;;;;;;5070453;28;20450;-73
2022/04/09 09:18:46;;;;;;;16.20;2.50;;;;;;;;;;5071238;28;20854;-72
2022/04/09 09:21:17;;;;;;;17.93;3.20;;;;;;;;;;5055345;28;20476;-72
2022/04/09 09:23:46;;;;;;;23.37;4.70;;;;;;;;;;5055215;28;20525;-74
2022/04/09 09:26:20;;;;;;;22.83;4.60;;;;;;;;;;5055246;28;20450;-71
2022/04/09 09:28:55;;;;;;;24.13;4.17;;;;;;;;;;5054859;28;20453;-72
2022/04/09 09:31:39;;;;;;;69.03;30.03;;;;;;;;;;5054954;28;20445;-73
2022/04/09 09:34:09;;;;;;;18.43;3.60;;;;;;;;;;5055023;28;20513;-71
2022/04/09 09:36:38;;;;;;;17.00;3.03;;;;;;;;;;5055010;28;20455;-73
2022/04/09 09:39:07;;;;;;;14.40;2.20;;;;;;;;;;5054846;28;20447;-73
2022/04/09 09:41:36;;;;;;;18.87;3.07;;;;;;;;;;5054991;28;20881;-71
2022/04/09 09:44:04;;;;;;;15.53;2.87;;;;;;;;;;5054486;28;20491;-73
2022/04/09 09:46:32;;;;;;;21.90;3.13;;;;;;;;;;5054960;28;20445;-73
2022/04/09 09:48:59;;;;;;;20.33;2.70;;;;;;;;;;5054789;28;20471;-73
2022/04/09 09:51:27;;;;;;;14.47;2.47;;;;;;;;;;5054571;28;20453;-74
2022/04/09 09:54:05;;;;;;;22.83;3.40;;;;;;;;;;5054344;28;20511;-74
2022/04/09 09:56:38;;;;;;;16.10;2.37;;;;;;;;;;5054748;28;20839;-73
2022/04/09 09:59:07;;;;;;;15.70;1.80;;;;;;;;;;5054586;28;21025;-73
2022/04/09 10:01:39;;;;;;;22.83;4.13;;;;;;;;;;5054298;28;20451;-74
2022/04/09 10:04:07;;;;;;;95.07;51.37;;;;;;;;;;5054777;28;20857;-73
2022/04/09 10:06:35;;;;;;;28.23;8.70;;;;;;;;;;5054732;28;20448;-74
2022/04/09 10:09:05;;;;;;;21.07;5.83;;;;;;;;;;5054291;28;20455;-72
2022/04/09 10:11:35;;;;;;;64.87;34.00;;;;;;;;;;5054129;28;20498;-74
2022/04/09 10:14:05;;;;;;;16.63;1.57;;;;;;;;;;5053994;28;20452;-72
2022/04/09 10:16:36;;;;;;;21.90;3.10;;;;;;;;;;5054146;28;20957;-72
2022/04/09 10:19:04;;;;;;;16.90;2.30;;;;;;;;;;5054043;28;20464;-74
2022/04/09 10:21:33;;;;;;;19.07;2.90;;;;;;;;;;5054311;28;20489;-74
2022/04/09 10:24:02;;;;;;;15.77;2.13;;;;;;;;;;5054032;28;20998;-75
2022/04/09 10:26:30;;;;;;;16.90;2.53;;;;;;;;;;5047541;28;20453;-74
2022/04/09 10:29:08;;;;;;;31.17;4.73;;;;;;;;;;5052313;28;20929;-74
2022/04/09 10:31:37;;;;;;;17.03;2.10;;;;;;;;;;5053827;28;20463;-74
2022/04/09 10:34:06;;;;;;;18.37;2.67;;;;;;;;;;5053797;28;20446;-73
2022/04/09 10:36:53;;;;;;;14.80;1.90;;;;;;;;;;5053827;28;20453;-73
2022/04/09 10:39:21;;;;;;;17.13;2.00;;;;;;;;;;5053739;28;20443;-73
2022/04/09 10:41:49;;;;;;;14.00;1.70;;;;;;;;;;5072163;28;20453;-72
2022/04/09 10:44:31;;;;;;;17.10;2.10;;;;;;;;;;5072948;28;20446;-75
2022/04/09 10:47:01;;;;;;;19.93;2.23;;;;;;;;;;5072989;28;20454;-73
2022/04/09 10:49:29;;;;;;;19.47;4.60;;;;;;;;;;5072757;28;20954;-72
2022/04/09 10:52:11;;;;;;;20.63;2.97;;;;;;;;;;5072432;28;20447;-72
2022/04/09 10:54:38;;;;;;;19.73;2.60;;;;;;;;;;5072789;28;20488;-75
2022/04/09 10:57:10;;;;;;;18.23;1.60;;;;;;;;;;5072901;28;20478;-73
2022/04/09 10:59:38;;;;;;;21.90;4.40;;;;;;;;;;5072530;28;20443;-73
2022/04/09 11:02:09;;;;;;;26.67;4.57;;;;;;;;;;5062713;28;20459;-73
2022/04/09 11:04:37;;;;;;;19.80;2.90;;;;;;;;;;5055939;28;20480;-74
2022/04/09 11:07:06;;;;;;;17.70;2.60;;;;;;;;;;5062394;28;20440;-73
2022/04/09 11:09:47;;;;;;;24.93;3.83;;;;;;;;;;5056447;28;20979;-74
2022/04/09 11:12:15;;;;;;;16.73;2.13;;;;;;;;;;5051257;28;20452;-74
2022/04/09 11:14:44;;;;;;;12.87;1.20;;;;;;;;;;5053046;28;20464;-74
2022/04/09 11:17:17;;;;;;;19.60;2.33;;;;;;;;;;5052322;28;20960;-74
2022/04/09 11:19:45;;;;;;;21.40;2.97;;;;;;;;;;5052789;28;20452;-74
2022/04/09 11:22:12;;;;;;;16.20;2.27;;;;;;;;;;5052865;28;20465;-72
2022/04/09 11:24:40;;;;;;;25.97;9.30;;;;;;;;;;5058989;28;20485;-73
2022/04/09 11:27:08;;;;;;;14.93;1.80;;;;;;;;;;5060111;28;20468;-70
2022/04/09 11:29:35;;;;;;;12.77;1.70;;;;;;;;;;5052865;28;20451;-71
2022/04/09 11:32:04;;;;;;;16.60;2.83;;;;;;;;;;5053157;28;20922;-70
2022/04/09 11:37:29;;;;;;;382.73;230.77;;;;;;;;;;5157445;27;20588;-71
2022/04/09 11:39:57;;;;;;;189.93;170.90;;;;;;;;;;5144210;27;20463;-70
2022/04/09 11:42:25;;;;;;;213.17;194.50;;;;;;;;;;5150631;27;20966;-70
2022/04/09 11:44:53;;;;;;;208.53;190.30;;;;;;;;;;5150574;27;21054;-70
2022/04/09 11:47:24;;;;;;;260.57;231.97;;;;;;;;;;5150475;27;20990;-70
2022/04/09 11:50:10;;;;;;;327.13;257.37;;;;;;;;;;5150224;27;20462;-70
2022/04/09 11:52:39;;;;;;;317.30;244.83;;;;;;;;;;5150309;27;20962;-71
2022/04/09 11:55:10;;;;;;;233.33;197.03;;;;;;;;;;5145409;27;20505;-72
2022/04/09 11:57:38;;;;;;;346.70;228.40;;;;;;;;;;5129383;28;21036;-70
2022/04/09 12:00:06;;;;;;;321.87;220.07;;;;;;;;;;5129342;28;20445;-70
2022/04/09 12:02:35;;;;;;;293.57;212.53;;;;;;;;;;5129563;27;20505;-71
2022/04/09 12:05:04;;;;;;;258.30;195.03;;;;;;;;;;5129432;28;20483;-72
2022/04/09 12:07:32;;;;;;;270.57;206.13;;;;;;;;;;5129635;28;20469;-72
2022/04/09 12:10:01;;;;;;;250.03;211.50;;;;;;;;;;5129164;28;20449;-71
2022/04/09 12:12:28;;;;;;;270.03;199.93;;;;;;;;;;5129418;28;20444;-72
2022/04/09 12:14:56;;;;;;;297.27;217.23;;;;;;;;;;5129130;27;20445;-71
2022/04/09 12:17:31;;;;;;;279.17;211.93;;;;;;;;;;5128997;28;20447;-71
2022/04/09 12:19:59;;;;;;;332.10;249.87;;;;;;;;;;5129128;28;20439;-73
2022/04/09 12:22:27;;;;;;;247.47;220.03;;;;;;;;;;5129421;28;20448;-77
2022/04/09 12:24:56;;;;;;;235.03;210.67;;;;;;;;;;5129005;28;20971;-70
2022/04/09 12:27:43;;;;;;;219.60;199.40;;;;;;;;;;5128919;28;20487;-71
2022/04/09 12:30:12;;;;;;;207.37;189.47;;;;;;;;;;5129338;28;20435;-70
2022/04/09 12:32:41;;;;;;;180.37;164.80;;;;;;;;;;5128857;28;20450;-71
2022/04/09 12:35:09;;;;;;;177.60;161.17;;;;;;;;;;5128562;28;20451;-71
2022/04/09 12:37:46;;;;;;;165.67;151.07;;;;;;;;;;5128906;28;20455;-73
2022/04/09 12:40:15;;;;;;;143.07;130.83;;;;;;;;;;5126893;28;20540;-74
2022/04/09 12:42:42;;;;;;;136.33;124.17;;;;;;;;;;5128984;28;20450;-73
2022/04/09 12:45:12;;;;;;;165.27;150.07;;;;;;;;;;5128928;28;20459;-73
2022/04/09 12:47:40;;;;;;;154.40;140.23;;;;;;;;;;5121375;28;20832;-73
2022/04/09 12:50:18;;;;;;;121.93;111.83;;;;;;;;;;5114796;28;20959;-74
2022/04/09 12:52:46;;;;;;;162.93;147.47;;;;;;;;;;5114356;28;20813;-74
2022/04/09 12:55:16;;;;;;;176.30;159.00;;;;;;;;;;5107513;28;20539;-73
2022/04/09 12:57:44;;;;;;;138.30;126.30;;;;;;;;;;5102593;28;20543;-74
2022/04/09 13:00:14;;;;;;;162.87;146.77;;;;;;;;;;5114722;28;20449;-72
2022/04/09 13:02:42;;;;;;;163.50;148.90;;;;;;;;;;5114999;28;20464;-76
2022/04/09 13:05:10;;;;;;;238.20;215.23;;;;;;;;;;5114518;28;20458;-73
2022/04/09 13:07:38;;;;;;;156.23;142.77;;;;;;;;;;5114390;28;20487;-76
2022/04/09 13:10:05;;;;;;;167.27;153.27;;;;;;;;;;5114600;28;20472;-76
2022/04/09 13:12:33;;;;;;;191.60;174.70;;;;;;;;;;5114622;28;21048;-76
2022/04/09 13:15:01;;;;;;;176.43;161.63;;;;;;;;;;5114334;28;20455;-76
2022/04/09 13:17:33;;;;;;;161.63;148.83;;;;;;;;;;5114336;28;20449;-76
2022/04/09 13:20:02;;;;;;;159.03;146.43;;;;;;;;;;5114164;28;20433;-76
2022/04/09 13:22:29;;;;;;;101.03;93.30;;;;;;;;;;5114576;28;20440;-76
2022/04/09 13:24:57;;;;;;;115.10;106.87;;;;;;;;;;5114225;28;20449;-76
2022/04/09 13:27:24;;;;;;;111.10;102.70;;;;;;;;;;5114184;28;20583;-76
2022/04/09 13:29:52;;;;;;;114.77;105.33;;;;;;;;;;5113922;28;20992;-76
2022/04/09 13:32:20;;;;;;;97.00;89.77;;;;;;;;;;5114034;28;20478;-76
2022/04/09 13:34:49;;;;;;;69.27;63.10;;;;;;;;;;5113962;28;20518;-76
2022/04/09 13:37:19;;;;;;;79.17;72.67;;;;;;;;;;5114191;28;20477;-77
2022/04/09 13:39:47;;;;;;;118.33;106.93;;;;;;;;;;5114331;28;20449;-75
2022/04/09 13:42:15;;;;;;;138.00;126.20;;;;;;;;;;5114165;28;20549;-75
2022/04/09 13:44:45;;;;;;;97.20;90.00;;;;;;;;;;5113862;28;20449;-72
2022/04/09 13:47:12;;;;;;;88.17;81.27;;;;;;;;;;5113913;28;20487;-73
2022/04/09 13:49:41;;;;;;;69.93;64.67;;;;;;;;;;5113698;28;20448;-73
2022/04/09 13:52:10;;;;;;;85.87;79.17;;;;;;;;;;5113912;28;20697;-72
2022/04/09 13:54:38;;;;;;;222.43;202.10;;;;;;;;;;5113760;28;20445;-76
2022/04/09 13:57:06;;;;;;;382.83;255.10;;;;;;;;;;5113518;28;20457;-75
2022/04/09 13:59:34;;;;;;;237.97;213.87;;;;;;;;;;5112446;28;20452;-76
2022/04/09 14:02:04;;;;;;;213.00;194.73;;;;;;;;;;5113519;28;20964;-72
2022/04/09 14:04:32;;;;;;;220.70;199.70;;;;;;;;;;5113513;28;20955;-73
2022/04/09 14:06:59;;;;;;;191.23;175.27;;;;;;;;;;5113475;28;20878;-76
2022/04/09 14:09:28;;;;;;;138.83;128.07;;;;;;;;;;5113445;28;20446;-72
2022/04/09 14:11:55;;;;;;;123.30;112.70;;;;;;;;;;5113058;28;20451;-73
2022/04/09 14:14:24;;;;;;;147.80;136.30;;;;;;;;;;5113339;28;20445;-72
2022/04/09 14:16:52;;;;;;;81.47;75.37;;;;;;;;;;5106116;28;20457;-74
2022/04/09 14:19:20;;;;;;;92.57;85.80;;;;;;;;;;5106132;28;20449;-74
2022/04/09 14:21:47;;;;;;;121.53;111.77;;;;;;;;;;5111629;28;20471;-73
2022/04/09 14:24:15;;;;;;;111.53;102.97;;;;;;;;;;5113059;28;20462;-71
2022/04/09 14:26:44;;;;;;;103.53;95.67;;;;;;;;;;5112855;28;20524;-73
2022/04/09 14:29:12;;;;;;;155.10;141.33;;;;;;;;;;5107175;28;20450;-73
2022/04/09 14:31:39;;;;;;;96.63;89.03;;;;;;;;;;5104141;28;20856;-72
2022/04/09 14:34:07;;;;;;;74.53;68.33;;;;;;;;;;5105058;28;20796;-73